Time;durP1;ratioP1;P1;durP2;ratioP2;P2;SDS_P1;SDS_P2;PMS_P1;PMS_P2;Temp;Humidity;BMP_temperature;BMP_pressure;BME280_temperature;BME280_humidity;BME280_pressure;Samples;Min_cycle;Max_cycle;Signal;HPM_P1;HPM_P2
2022/04/19 00:01:48;;;;;;;5.65;5.35;;;;;;;7.58;59.26;100954.38;6083809;23;20009;-68
2022/04/19 00:04:16;;;;;;;4.35;4.15;;;;;;;7.63;58.02;100954.22;6084656;23;20014;-68
2022/04/19 00:06:44;;;;;;;5.35;5.15;;;;;;;7.59;58.30;100958.69;6073744;23;20012;-67
2022/04/19 00:09:11;;;;;;;4.00;3.80;;;;;;;7.52;59.70;100952.00;6074398;23;20093;-68
2022/04/19 00:11:37;;;;;;;5.45;5.25;;;;;;;7.30;60.18;100928.41;6076014;23;20010;-67
2022/04/19 00:14:04;;;;;;;3.83;3.70;;;;;;;7.42;60.41;100950.63;6107997;23;20085;-67
2022/04/19 00:16:30;;;;;;;4.10;3.92;;;;;;;7.37;60.17;100957.75;6084491;23;20525;-67
2022/04/19 00:18:57;;;;;;;4.00;3.80;;;;;;;7.20;60.11;100916.56;6081609;23;20014;-68
2022/04/19 00:21:23;;;;;;;4.20;4.00;;;;;;;7.16;60.02;100922.81;6090508;23;20184;-67
2022/04/19 00:23:50;;;;;;;3.70;3.60;;;;;;;7.15;60.61;100927.16;6094817;23;20182;-70
2022/04/19 00:26:16;;;;;;;3.72;3.63;;;;;;;7.03;60.87;100916.28;6115338;23;20088;-70
2022/04/19 00:28:43;;;;;;;5.35;5.15;;;;;;;7.20;60.03;100950.50;6119017;23;20010;-70
2022/04/19 00:31:09;;;;;;;4.30;4.00;;;;;;;7.17;60.16;100947.97;6118789;23;20052;-71
2022/04/19 00:33:39;;;;;;;5.55;5.35;;;;;;;6.86;60.54;100898.59;6111277;23;20184;-70
2022/04/19 00:36:05;;;;;;;3.72;3.63;;;;;;;7.09;60.54;100943.00;6117029;23;20097;-71
2022/04/19 00:38:32;;;;;;;5.10;4.90;;;;;;;7.05;60.16;100933.59;6110540;23;20100;-70
2022/04/19 00:40:58;;;;;;;4.00;3.80;;;;;;;7.02;60.73;100925.88;6110970;23;20025;-71
2022/04/19 00:43:26;;;;;;;3.50;3.40;;;;;;;6.21;60.51;100792.97;6109392;23;20656;-70
2022/04/19 00:45:53;;;;;;;4.07;3.88;;;;;;;7.02;60.86;100940.69;6107634;23;20017;-68
2022/04/19 00:48:21;;;;;;;4.18;3.97;;;;;;;6.99;61.60;100928.56;6119972;23;20017;-67
2022/04/19 00:50:50;;;;;;;3.50;3.40;;;;;;;6.76;60.32;100900.66;6112851;23;20228;-67
2022/04/19 00:53:18;;;;;;;3.80;3.63;;;;;;;6.74;60.49;100903.31;6133350;23;20040;-67
2022/04/19 00:55:44;;;;;;;5.32;5.13;;;;;;;6.68;60.47;100890.47;6107737;23;20401;-67
2022/04/19 00:58:12;;;;;;;3.60;3.50;;;;;;;6.61;60.50;100881.13;6118523;23;20019;-67
2022/04/19 01:00:39;;;;;;;5.22;5.03;;;;;;;6.51;61.10;100871.91;6111028;23;20053;-68
2022/04/19 01:03:06;;;;;;;3.80;3.70;;;;;;;6.83;61.19;100937.81;6108785;23;20450;-67
2022/04/19 01:05:33;;;;;;;5.00;4.80;;;;;;;6.61;61.96;100902.00;6092019;23;20185;-65
2022/04/19 01:08:00;;;;;;;3.80;3.60;;;;;;;6.78;61.12;100933.59;6086996;23;20021;-67
2022/04/19 01:10:27;;;;;;;4.30;4.13;;;;;;;6.48;61.74;100900.72;6089623;23;20072;-67
2022/04/19 01:13:36;;;;;;;4.10;3.90;;;;;;;6.66;62.87;100926.19;6115023;23;20127;-67
2022/04/19 01:15:49;;;;;;;5.18;4.97;;;;;;;6.52;63.05;100910.13;6089125;23;20010;-67
2022/04/19 01:18:20;;;;;;;4.00;3.80;;;;;;;6.53;63.24;100928.31;6111280;23;20037;-67
2022/04/19 01:20:48;;;;;;;4.90;4.70;;;;;;;6.50;63.48;100923.22;6116901;23;20025;-68
2022/04/19 01:23:18;;;;;;;3.83;3.70;;;;;;;6.45;63.64;100925.09;6109509;23;20158;-67
2022/04/19 01:25:44;;;;;;;5.07;4.88;;;;;;;6.41;63.87;100920.88;6082391;23;20018;-67
2022/04/19 01:28:11;;;;;;;3.60;3.50;;;;;;;6.36;64.64;100918.44;6102730;23;20088;-68
2022/04/19 01:30:38;;;;;;;5.55;5.30;;;;;;;6.18;64.27;100892.94;6104441;23;20311;-67
2022/04/19 01:33:06;;;;;;;4.03;3.83;;;;;;;6.21;64.54;100899.81;6089372;23;20296;-68
2022/04/19 01:35:32;;;;;;;4.90;4.70;;;;;;;6.27;64.31;100910.03;6112895;23;20113;-67
2022/04/19 01:37:58;;;;;;;3.53;3.42;;;;;;;6.02;64.68;100884.75;6118099;23;20037;-67
2022/04/19 01:40:25;;;;;;;3.60;3.50;;;;;;;6.18;65.42;100909.44;6109726;23;20075;-67
2022/04/19 01:42:58;;;;;;;3.50;3.40;;;;;;;6.15;65.31;100909.53;6112020;23;20257;-67
2022/04/19 01:45:27;;;;;;;3.83;3.63;;;;;;;5.95;66.00;100886.69;6119761;23;20021;-67
2022/04/19 01:47:55;;;;;;;3.50;3.40;;;;;;;5.97;66.50;100890.09;6113067;23;20542;-67
2022/04/19 01:50:24;;;;;;;3.50;3.40;;;;;;;6.08;66.34;100909.75;6120602;23;20360;-67
2022/04/19 01:52:51;;;;;;;3.50;3.40;;;;;;;5.90;67.01;100890.28;6120876;23;20105;-67
2022/04/19 01:55:18;;;;;;;3.67;3.58;;;;;;;5.98;66.87;100906.56;6113028;23;20518;-67
2022/04/19 01:57:51;;;;;;;5.05;4.85;;;;;;;5.90;67.62;100903.31;6122216;23;20025;-68
2022/04/19 02:00:18;;;;;;;;;;;;;;;5.89;67.80;100899.00;6111252;23;20014;-67
2022/04/19 02:02:46;;;;;;;5.15;4.95;;;;;;;5.83;67.75;100902.63;6113009;23;19916;-68
2022/04/19 02:05:14;;;;;;;3.70;3.60;;;;;;;5.80;67.44;100905.31;6116364;23;20111;-67
2022/04/19 02:07:42;;;;;;;5.25;5.05;;;;;;;5.76;68.09;100901.97;6110740;23;20013;-67
2022/04/19 02:10:11;;;;;;;3.60;3.50;;;;;;;5.73;68.42;100902.06;6115884;23;20038;-67
2022/04/19 02:12:38;;;;;;;4.90;4.70;;;;;;;4.37;69.13;100689.06;6109096;23;20471;-67
2022/04/19 02:15:06;;;;;;;3.47;3.38;;;;;;;5.25;69.10;100845.28;6113572;23;20394;-67
2022/04/19 02:17:33;;;;;;;5.15;4.95;;;;;;;5.44;69.59;100876.00;6113793;23;20010;-68
2022/04/19 02:20:06;;;;;;;3.53;3.42;;;;;;;5.26;70.31;100857.38;6093328;23;20052;-67
2022/04/19 02:22:34;;;;;;;5.72;5.53;;;;;;;5.55;70.49;100902.56;6118000;23;20030;-67
2022/04/19 02:25:00;;;;;;;3.60;3.50;;;;;;;5.51;71.12;100903.53;6109396;23;20017;-68
2022/04/19 02:27:30;;;;;;;3.33;3.22;;;;;;;5.49;72.16;100907.94;6124464;23;20028;-67
2022/04/19 02:29:57;;;;;;;3.58;3.47;;;;;;;5.49;71.71;100905.34;6118119;23;20045;-67
2022/04/19 02:32:24;;;;;;;3.72;3.60;;;;;;;5.25;72.02;100867.81;6110648;23;20096;-67
2022/04/19 02:34:51;;;;;;;3.90;3.72;;;;;;;5.22;72.43;100871.38;6111344;23;20045;-67
2022/04/19 02:37:18;;;;;;;3.55;3.45;;;;;;;5.26;73.88;100879.97;6118746;23;20021;-67
2022/04/19 02:39:48;;;;;;;5.15;4.95;;;;;;;5.43;74.07;100908.09;6108840;23;20457;-67
2022/04/19 02:42:15;;;;;;;3.55;3.45;;;;;;;5.38;73.75;100892.63;6116484;23;20036;-67
2022/04/19 02:44:41;;;;;;;4.95;4.75;;;;;;;5.35;74.66;100900.50;6109218;23;20073;-67
2022/04/19 02:47:08;;;;;;;3.40;3.20;;;;;;;5.30;73.98;100898.03;6110337;23;20029;-67
2022/04/19 02:49:36;;;;;;;5.15;4.95;;;;;;;5.24;74.20;100899.97;6113347;23;20088;-67
2022/04/19 02:52:04;;;;;;;3.50;3.40;;;;;;;5.18;74.51;100893.16;6120133;23;20386;-66
2022/04/19 02:54:31;;;;;;;3.92;3.78;;;;;;;5.12;75.66;100891.56;6116854;23;20076;-66
2022/04/19 02:56:58;;;;;;;3.38;3.25;;;;;;;5.08;75.77;100889.94;6093675;23;20069;-67
2022/04/19 02:59:24;;;;;;;3.40;3.30;;;;;;;4.88;75.04;100872.25;6100442;23;20024;-67
2022/04/19 03:01:50;;;;;;;3.53;3.42;;;;;;;5.05;75.16;100890.06;6113015;23;20245;-67
2022/04/19 03:04:18;;;;;;;3.75;3.58;;;;;;;4.74;75.08;100845.78;6110331;23;20010;-66
2022/04/19 03:06:44;;;;;;;5.35;5.15;;;;;;;5.02;76.05;100894.47;6107777;23;20017;-68
2022/04/19 03:09:10;;;;;;;3.53;3.42;;;;;;;4.77;75.87;100863.88;6115526;23;20028;-67
2022/04/19 03:11:37;;;;;;;5.03;4.82;;;;;;;4.91;77.54;100897.31;6109883;23;20470;-67
2022/04/19 03:14:07;;;;;;;3.20;3.10;;;;;;;4.88;77.31;100890.47;6113379;23;20025;-67
2022/04/19 03:16:33;;;;;;;4.82;4.63;;;;;;;4.82;78.70;100893.22;6108772;23;20033;-67
2022/04/19 03:19:00;;;;;;;3.50;3.40;;;;;;;4.71;78.75;100877.91;6113378;23;20092;-67
2022/04/19 03:21:27;;;;;;;3.17;3.08;;;;;;;4.75;78.16;100886.47;6110494;23;20048;-66
2022/04/19 03:29:23;;;;;;;3.55;3.40;;;;;;;4.50;77.60;100871.47;6083279;23;20093;-67
2022/04/19 03:31:49;;;;;;;3.28;3.17;;;;;;;4.47;78.00;100894.06;6106336;23;20013;-67
2022/04/19 03:34:16;;;;;;;3.40;3.30;;;;;;;4.50;79.39;100894.03;6103156;23;20403;-67
2022/04/19 03:36:45;;;;;;;5.15;4.95;;;;;;;4.43;80.41;100885.53;6101429;23;20018;-67
2022/04/19 03:39:12;;;;;;;3.10;3.00;;;;;;;4.16;80.42;100840.25;6089997;23;20010;-67
2022/04/19 03:41:38;;;;;;;5.03;4.82;;;;;;;3.12;79.66;100688.59;6104105;23;20522;-66
2022/04/19 03:44:06;;;;;;;3.50;3.40;;;;;;;4.31;80.19;100878.88;6105174;23;20041;-66
2022/04/19 03:47:06;;;;;;;3.83;3.67;;;;;;;4.28;80.18;100880.69;6114180;23;20037;-66
2022/04/19 03:49:19;;;;;;;3.47;3.38;;;;;;;4.22;80.10;100889.47;6104972;23;20032;-67
2022/04/19 03:51:46;;;;;;;5.32;4.93;;;;;;;3.54;80.12;100784.50;6115512;23;20067;-65
2022/04/19 03:54:12;;;;;;;3.50;3.40;;;;;;;4.10;80.12;100895.78;6107559;23;20321;-66
2022/04/19 03:56:38;;;;;;;5.05;4.85;;;;;;;3.89;81.36;100884.13;6106306;23;20013;-67
2022/04/19 03:59:06;;;;;;;3.03;2.92;;;;;;;3.91;80.74;100897.94;6114581;23;20201;-67
2022/04/19 04:01:32;;;;;;;5.13;4.93;;;;;;;3.37;81.98;100815.16;6093412;23;20026;-67
2022/04/19 04:03:59;;;;;;;3.10;3.00;;;;;;;3.54;81.97;100849.38;6107801;23;20596;-67
2022/04/19 04:06:25;;;;;;;3.47;3.28;;;;;;;3.72;82.26;100875.84;6087745;23;20038;-68
2022/04/19 04:08:52;;;;;;;3.20;3.10;;;;;;;3.71;82.29;100880.19;6104913;23;20040;-66
2022/04/19 04:11:18;;;;;;;3.20;3.10;;;;;;;3.66;81.95;100875.97;6113647;23;20497;-67
2022/04/19 04:13:45;;;;;;;4.53;4.32;;;;;;;3.82;82.01;100898.13;6089319;23;20036;-69
2022/04/19 04:16:11;;;;;;;3.60;3.50;;;;;;;3.82;81.58;100899.88;6107559;23;20014;-67
2022/04/19 04:18:39;;;;;;;4.95;4.75;;;;;;;3.24;81.40;100805.91;6083117;23;20024;-68
2022/04/19 04:21:06;;;;;;;3.20;3.10;;;;;;;3.82;81.42;100902.47;6107205;23;20048;-66
2022/04/19 04:23:33;;;;;;;4.70;4.50;;;;;;;3.79;81.47;100900.81;6108171;23;20024;-65
2022/04/19 04:26:00;;;;;;;3.25;3.15;;;;;;;3.77;81.59;100910.38;6081500;23;20442;-68
2022/04/19 04:28:26;;;;;;;3.03;2.92;;;;;;;3.79;81.50;100906.84;6107329;23;20033;-67
2022/04/19 04:30:53;;;;;;;3.30;3.20;;;;;;;3.82;81.29;100910.25;6099010;23;20025;-68
2022/04/19 04:33:21;;;;;;;3.30;3.20;;;;;;;3.64;81.57;100885.53;6106761;23;20001;-68
2022/04/19 04:35:48;;;;;;;4.43;4.22;;;;;;;3.61;82.11;100881.28;6100868;23;20434;-68
2022/04/19 04:38:14;;;;;;;3.30;3.20;;;;;;;3.88;82.29;100923.97;6110602;23;20091;-68
2022/04/19 04:40:41;;;;;;;5.20;5.00;;;;;;;3.62;83.07;100875.19;6094196;23;20022;-68
2022/04/19 04:43:07;;;;;;;3.08;2.97;;;;;;;3.37;83.01;100841.97;6101446;23;20084;-68
2022/04/19 04:45:34;;;;;;;4.47;4.28;;;;;;;3.91;82.84;100921.31;6087715;23;20217;-67
2022/04/19 04:50:46;;;;;;;5.70;5.25;;;;;;;4.27;79.83;100885.03;6084399;23;20035;-68
2022/04/19 04:53:12;;;;;;;3.20;3.10;;;;;;;4.47;79.74;100931.34;6122627;23;20009;-68
2022/04/19 04:55:38;;;;;;;4.75;4.55;;;;;;;4.46;79.62;100923.56;6090750;23;20149;-67
2022/04/19 04:58:05;;;;;;;3.20;3.10;;;;;;;4.42;79.52;100930.56;6111555;23;20067;-68
2022/04/19 05:00:31;;;;;;;4.38;4.20;;;;;;;4.49;79.24;100924.38;6087992;23;20177;-67
2022/04/19 05:02:58;;;;;;;2.92;2.83;;;;;;;4.60;78.84;100934.50;6108193;23;20025;-68
2022/04/19 05:05:24;;;;;;;3.35;3.25;;;;;;;4.73;78.50;100933.31;6114234;23;20021;-68
2022/04/19 05:07:51;;;;;;;3.67;3.58;;;;;;;4.87;78.43;100921.72;6111639;23;20293;-68
2022/04/19 05:10:17;;;;;;;3.13;3.03;;;;;;;4.99;78.60;100950.00;6101152;23;20018;-68
2022/04/19 05:12:44;;;;;;;5.10;4.90;;;;;;;5.09;77.46;100917.69;6082527;23;20021;-67
2022/04/19 05:15:10;;;;;;;3.20;3.10;;;;;;;5.25;76.70;100922.47;6122423;23;20520;-68
2022/04/19 05:17:37;;;;;;;4.72;4.53;;;;;;;5.36;76.42;100921.28;6110813;23;20032;-68
2022/04/19 05:20:04;;;;;;;3.20;3.10;;;;;;;5.27;75.96;100890.34;6112187;23;20297;-68
2022/04/19 05:22:31;;;;;;;3.90;3.75;;;;;;;5.30;76.07;100866.81;6093829;23;20055;-68
2022/04/19 05:24:58;;;;;;;3.17;3.08;;;;;;;5.49;75.54;100877.59;6113724;23;20406;-67
2022/04/19 05:27:24;;;;;;;3.30;3.20;;;;;;;5.95;74.66;100930.09;6117123;23;20108;-69
2022/04/19 05:29:50;;;;;;;3.25;3.15;;;;;;;5.96;74.55;100893.59;6108827;23;20359;-69
2022/04/19 05:32:17;;;;;;;3.40;3.30;;;;;;;6.67;73.44;100933.09;6124490;23;20424;-68
2022/04/19 05:34:43;;;;;;;5.15;4.95;;;;;;;7.56;72.21;100916.19;6089657;23;20021;-68
2022/04/19 05:37:10;;;;;;;4.13;3.83;;;;;;;8.41;70.91;100910.34;6121256;23;20542;-68
2022/04/19 05:39:36;;;;;;;5.03;4.82;;;;;;;8.87;68.58;100895.44;6093888;23;20021;-68
2022/04/19 05:42:03;;;;;;;3.65;3.55;;;;;;;8.37;70.00;100914.84;6103978;23;20029;-68
2022/04/19 05:44:29;;;;;;;3.72;3.60;;;;;;;9.01;67.42;100915.78;6109471;23;20094;-72
2022/04/19 05:46:57;;;;;;;3.60;3.50;;;;;;;9.53;66.61;100919.63;6112919;23;20009;-73
2022/04/19 05:49:23;;;;;;;4.57;4.38;;;;;;;9.42;64.69;100921.00;6107947;23;20083;-70
2022/04/19 05:51:50;;;;;;;4.35;4.15;;;;;;;8.22;65.49;100789.94;6111473;23;20017;-68
2022/04/19 05:54:16;;;;;;;3.80;3.70;;;;;;;8.77;66.81;100902.81;6110134;23;20055;-68
2022/04/19 05:56:43;;;;;;;5.80;5.55;;;;;;;8.16;66.80;100874.72;6116397;23;20042;-67
2022/04/19 05:59:09;;;;;;;4.10;3.90;;;;;;;8.26;69.14;100938.81;6099377;23;20020;-68
2022/04/19 06:07:06;;;;;;;4.00;3.80;;;;;;;8.24;69.57;100921.47;6096516;23;20101;-71
2022/04/19 06:09:32;;;;;;;4.57;4.38;;;;;;;8.16;69.13;100904.31;6095510;23;20741;-71
2022/04/19 06:12:00;;;;;;;4.10;3.90;;;;;;;8.36;69.25;100934.09;6104243;23;20701;-71
2022/04/19 06:14:27;;;;;;;4.30;4.10;;;;;;;8.43;68.43;100925.09;6095865;23;20084;-70
2022/04/19 06:16:54;;;;;;;4.43;4.22;;;;;;;8.34;68.03;100894.91;6113511;23;20061;-71
2022/04/19 06:19:20;;;;;;;5.47;5.28;;;;;;;8.72;66.85;100937.03;6110020;23;20029;-71
2022/04/19 06:21:48;;;;;;;3.90;3.70;;;;;;;8.86;67.48;100940.81;6107027;23;20033;-71
2022/04/19 06:24:14;;;;;;;5.05;4.85;;;;;;;8.88;65.21;100904.97;6109843;23;20047;-71
2022/04/19 06:26:40;;;;;;;3.92;3.78;;;;;;;9.06;64.33;100919.06;6107649;23;20399;-70
2022/04/19 06:29:07;;;;;;;4.20;4.00;;;;;;;8.30;63.55;100748.66;6093179;23;20034;-70
2022/04/19 06:31:33;;;;;;;4.35;4.15;;;;;;;9.32;61.49;100916.19;6110087;23;20045;-70
2022/04/19 06:34:00;;;;;;;3.95;3.80;;;;;;;9.38;60.58;100910.69;6117417;23;20017;-71
2022/04/19 06:36:26;;;;;;;5.90;5.65;;;;;;;9.36;58.54;100904.66;6113259;23;20033;-71
2022/04/19 06:38:53;;;;;;;4.10;3.90;;;;;;;9.60;59.35;100914.94;6113459;23;20045;-70
2022/04/19 06:41:20;;;;;;;5.35;5.15;;;;;;;9.81;57.95;100928.03;6103995;23;20035;-70
2022/04/19 06:43:46;;;;;;;4.10;3.90;;;;;;;9.86;57.61;100926.91;6115427;23;20045;-70
2022/04/19 06:46:17;;;;;;;5.72;5.43;;;;;;;9.72;59.35;100892.59;6112338;23;20083;-68
2022/04/19 06:48:44;;;;;;;4.40;4.20;;;;;;;9.77;60.21;100891.47;6102907;23;20017;-69
2022/04/19 06:51:10;;;;;;;4.20;4.00;;;;;;;9.97;58.42;100910.69;6110946;23;20474;-70
2022/04/19 06:53:57;;;;;;;4.00;3.80;;;;;;;10.30;55.98;100926.66;6106464;23;20070;-71
2022/04/19 06:56:24;;;;;;;5.75;5.53;;;;;;;8.49;53.36;100616.22;6095921;23;20042;-70
2022/04/19 06:58:50;;;;;;;4.28;4.07;;;;;;;10.37;56.22;100933.28;6086438;23;20265;-68
2022/04/19 07:01:17;;;;;;;5.43;5.18;;;;;;;10.27;55.39;100886.56;6094937;23;20012;-69
2022/04/19 07:03:44;;;;;;;5.22;4.93;;;;;;;10.57;57.08;100919.22;6087250;23;20026;-69
2022/04/19 07:06:10;;;;;;;4.28;4.07;;;;;;;10.64;56.54;100929.41;6103166;23;20244;-70
2022/04/19 07:08:38;;;;;;;4.30;4.10;;;;;;;10.75;57.22;100932.38;6090620;23;20029;-69
2022/04/19 07:11:04;;;;;;;4.38;4.18;;;;;;;10.85;56.06;100935.41;6088365;23;20025;-71
2022/04/19 07:13:30;;;;;;;4.45;4.25;;;;;;;11.04;57.13;100927.44;6100849;23;20308;-72
2022/04/19 07:15:57;;;;;;;4.20;4.00;;;;;;;11.04;57.76;100932.69;6107986;23;20032;-72
2022/04/19 07:18:24;;;;;;;5.45;5.25;;;;;;;11.04;58.10;100912.50;6097358;23;20193;-69
2022/04/19 07:29:11;;;;;;;4.18;3.97;;;;;;;11.16;55.17;100861.13;6094652;23;20032;-70
2022/04/19 07:31:48;;;;;;;4.20;4.00;;;;;;;11.77;53.97;100931.50;6103449;23;20033;-70
2022/04/19 07:34:16;;;;;;;5.45;5.18;;;;;;;11.21;53.74;100848.63;6092029;23;20043;-69
2022/04/19 07:36:43;;;;;;;4.30;4.10;;;;;;;11.98;53.91;100944.44;6097995;23;20014;-70
2022/04/19 07:39:11;;;;;;;4.80;4.60;;;;;;;11.97;52.68;100904.16;6080082;23;20026;-71
2022/04/19 07:41:38;;;;;;;4.93;4.72;;;;;;;12.38;51.65;100937.00;6103202;23;20014;-70
2022/04/19 07:44:09;;;;;;;4.85;4.55;;;;;;;11.61;51.11;100783.41;6110417;23;20025;-70
2022/04/19 07:46:35;;;;;;;5.10;4.80;;;;;;;12.11;51.05;100845.53;6109013;23;20009;-70
2022/04/19 07:49:03;;;;;;;5.03;4.72;;;;;;;12.59;51.79;100929.69;6110692;23;20535;-70
2022/04/19 07:51:29;;;;;;;5.38;5.18;;;;;;;12.78;50.52;100932.94;6106072;23;20268;-69
2022/04/19 07:53:56;;;;;;;4.38;4.18;;;;;;;12.96;49.32;100930.19;6101117;23;20275;-69
2022/04/19 07:56:22;;;;;;;5.45;5.25;;;;;;;12.85;49.31;100893.06;6102121;23;20068;-70
2022/04/19 07:58:49;;;;;;;4.60;4.40;;;;;;;13.25;49.66;100931.13;6089039;23;20017;-69
2022/04/19 08:01:17;;;;;;;6.03;5.72;;;;;;;13.16;49.63;100903.50;6101713;23;20511;-68
2022/04/19 08:03:44;;;;;;;5.07;4.80;;;;;;;12.65;46.07;100836.31;6092347;23;20014;-70
2022/04/19 08:06:11;;;;;;;4.40;4.20;;;;;;;13.28;44.39;100936.19;6111984;23;20317;-70
2022/04/19 08:08:40;;;;;;;4.53;4.32;;;;;;;12.56;45.25;100800.84;6087680;23;20510;-70
2022/04/19 08:11:06;;;;;;;4.35;4.15;;;;;;;13.55;46.46;100930.22;6083314;23;20177;-70
2022/04/19 08:13:33;;;;;;;4.63;4.43;;;;;;;13.35;45.47;100852.38;6081363;23;20887;-70
2022/04/19 08:15:59;;;;;;;4.90;4.70;;;;;;;13.81;43.54;100931.28;6085704;23;20046;-69
2022/04/19 08:18:26;;;;;;;6.43;6.13;;;;;;;13.76;43.64;100930.69;6082197;23;20013;-69
2022/04/19 08:20:53;;;;;;;5.00;4.70;;;;;;;14.03;45.45;100917.59;6118029;23;20013;-69
2022/04/19 08:23:20;;;;;;;6.60;6.05;;;;;;;14.35;44.09;100936.66;6081461;23;20009;-70
2022/04/19 08:25:46;;;;;;;4.57;4.38;;;;;;;14.43;42.71;100928.22;6094836;23;20037;-69
2022/04/19 08:28:13;;;;;;;4.93;4.72;;;;;;;14.50;42.75;100926.88;6105362;23;20237;-70
2022/04/19 08:30:39;;;;;;;5.20;4.90;;;;;;;13.61;43.53;100749.69;6086527;23;20311;-70
2022/04/19 08:33:05;;;;;;;4.78;4.55;;;;;;;14.59;41.16;100896.41;6095897;23;20033;-69
2022/04/19 08:35:32;;;;;;;5.35;5.13;;;;;;;14.80;39.50;100925.00;6098562;23;20018;-70
2022/04/19 08:37:58;;;;;;;4.60;4.40;;;;;;;14.89;40.06;100917.31;6082945;23;20619;-68
2022/04/19 08:40:26;;;;;;;6.38;6.07;;;;;;;14.94;38.98;100922.28;6111659;23;20093;-68
2022/04/19 08:42:56;;;;;;;4.82;4.63;;;;;;;15.11;38.18;100921.13;6116098;23;20025;-69
2022/04/19 08:45:23;;;;;;;6.10;5.80;;;;;;;14.83;39.20;100867.50;6114562;23;20091;-68
2022/04/19 08:47:50;;;;;;;5.18;4.90;;;;;;;14.86;38.29;100840.88;6113319;23;20052;-68
2022/04/19 08:50:19;;;;;;;6.03;5.57;;;;;;;15.58;38.65;100903.81;6102747;23;20010;-67
2022/04/19 08:52:46;;;;;;;5.00;4.80;;;;;;;15.65;37.74;100909.50;6112853;23;20025;-68
2022/04/19 08:57:59;;;;;;;4.68;4.47;;;;;;;15.78;35.37;100928.06;6097458;23;20110;-70
2022/04/19 09:00:25;;;;;;;5.72;5.47;;;;;;;15.95;35.77;100917.13;6117434;23;20027;-68
2022/04/19 09:02:58;;;;;;;5.50;5.20;;;;;;;16.08;36.90;100917.09;6114423;23;20033;-68
2022/04/19 09:05:27;;;;;;;7.03;6.63;;;;;;;16.11;34.93;100923.00;6106739;23;20382;-68
2022/04/19 09:07:57;;;;;;;5.25;4.95;;;;;;;16.06;34.07;100897.84;6111342;23;20387;-68
2022/04/19 09:10:34;;;;;;;6.55;6.25;;;;;;;16.47;34.55;100907.19;6111908;23;20065;-68
2022/04/19 09:13:09;;;;;;;5.65;5.35;;;;;;;16.62;34.47;100908.72;6117625;23;20025;-68
2022/04/19 09:15:43;;;;;;;5.30;4.95;;;;;;;16.86;34.80;100914.03;6090652;23;20018;-68
2022/04/19 09:18:30;;;;;;;5.50;5.20;;;;;;;16.60;33.72;100910.63;6081335;23;20018;-68
2022/04/19 09:20:58;;;;;;;5.88;5.57;;;;;;;16.64;32.67;100914.75;6112455;23;20112;-67
2022/04/19 09:23:25;;;;;;;7.00;6.57;;;;;;;16.34;33.04;100881.63;6082229;23;20014;-68
2022/04/19 09:25:56;;;;;;;7.15;5.70;;;;;;;16.48;33.78;100906.25;6091813;23;20122;-68
2022/04/19 09:28:24;;;;;;;6.63;6.32;;;;;;;16.54;35.64;100897.84;6111160;23;20124;-67
2022/04/19 09:30:52;;;;;;;5.40;5.05;;;;;;;16.48;34.43;100893.00;6112660;23;20077;-68
2022/04/19 09:33:20;;;;;;;7.35;7.05;;;;;;;16.60;34.25;100855.00;6097869;23;20017;-68
2022/04/19 09:35:58;;;;;;;5.40;5.10;;;;;;;17.03;34.18;100874.78;6114470;23;20014;-68
2022/04/19 09:38:41;;;;;;;5.32;5.10;;;;;;;16.66;32.69;100902.22;6105821;23;20013;-68
2022/04/19 09:41:16;;;;;;;5.15;4.95;;;;;;;15.93;32.14;100745.16;6104960;23;20032;-68
2022/04/19 09:44:07;;;;;;;5.65;5.35;;;;;;;17.23;33.50;100890.00;6107190;23;20022;-68
2022/04/19 09:46:36;;;;;;;5.30;5.00;;;;;;;17.12;34.07;100882.88;6100371;23;20032;-68
2022/04/19 09:49:03;;;;;;;5.40;5.10;;;;;;;17.27;32.65;100880.00;6096712;23;20364;-68
2022/04/19 09:51:31;;;;;;;5.53;5.28;;;;;;;17.49;31.77;100882.66;6100894;23;20360;-69
2022/04/19 09:53:58;;;;;;;6.38;5.85;;;;;;;17.67;31.96;100869.75;6108374;23;20044;-68
2022/04/19 09:56:33;;;;;;;7.35;6.95;;;;;;;17.82;32.61;100880.97;6103221;23;20522;-68
2022/04/19 09:59:16;;;;;;;4.97;4.78;;;;;;;17.58;30.08;100880.25;6103259;23;20029;-68
2022/04/19 10:10:02;;;;;;;5.75;5.45;;;;;;;17.43;34.19;100869.03;6103967;23;20020;-68
2022/04/19 10:12:30;;;;;;;6.68;6.28;;;;;;;17.15;31.93;100829.59;6091064;23;20423;-68
2022/04/19 10:14:57;;;;;;;5.07;4.88;;;;;;;17.12;31.26;100845.75;6084611;23;20506;-68
2022/04/19 10:17:24;;;;;;;7.43;7.03;;;;;;;17.58;34.12;100865.19;6086230;23;20222;-68
2022/04/19 10:19:50;;;;;;;5.10;4.90;;;;;;;17.67;33.50;100866.25;6101277;23;20038;-68
2022/04/19 10:22:17;;;;;;;6.70;6.35;;;;;;;17.26;33.19;100838.50;6110423;23;20114;-68
2022/04/19 10:24:44;;;;;;;5.13;4.90;;;;;;;17.68;32.37;100849.34;6093232;23;20068;-68
2022/04/19 10:27:11;;;;;;;5.15;4.78;;;;;;;16.97;34.75;100732.91;6103280;23;20280;-67
2022/04/19 10:29:37;;;;;;;5.22;5.00;;;;;;;17.76;31.60;100849.59;6077788;23;20017;-67
2022/04/19 10:32:08;;;;;;;6.50;5.20;;;;;;;17.83;32.24;100849.94;6117115;23;20025;-68
2022/04/19 10:34:40;;;;;;;5.28;4.97;;;;;;;17.72;33.46;100853.44;6101673;23;20112;-68
2022/04/19 10:37:13;;;;;;;5.30;5.00;;;;;;;17.48;32.19;100850.94;6115483;23;20031;-68
2022/04/19 10:39:46;;;;;;;5.20;5.00;;;;;;;17.51;32.16;100856.84;6108581;23;20035;-68
2022/04/19 10:42:30;;;;;;;5.32;5.13;;;;;;;17.44;31.48;100823.81;6107422;23;20276;-68
2022/04/19 10:44:57;;;;;;;6.18;5.47;;;;;;;17.49;33.62;100849.97;6105280;23;20021;-68
2022/04/19 10:47:24;;;;;;;6.65;6.35;;;;;;;17.56;34.92;100827.31;6108874;23;20024;-68
2022/04/19 10:50:00;;;;;;;5.43;5.15;;;;;;;17.59;36.55;100831.53;6080582;23;20218;-67
2022/04/19 10:52:36;;;;;;;6.82;6.40;;;;;;;17.65;33.22;100846.97;6101777;23;20023;-68
2022/04/19 10:55:08;;;;;;;5.70;5.28;;;;;;;17.50;34.00;100846.34;6093978;23;20026;-68
2022/04/19 11:00:27;;;;;;;6.78;6.38;;;;;;;17.62;32.84;100813.56;6108133;23;20008;-68
2022/04/19 11:03:20;;;;;;;5.75;5.47;;;;;;;17.94;32.07;100836.66;6090897;23;20403;-68
2022/04/19 11:05:54;;;;;;;7.25;5.20;;;;;;;17.78;32.42;100789.28;6089417;23;20256;-68
2022/04/19 11:08:26;;;;;;;7.30;6.90;;;;;;;17.99;32.56;100829.19;6107144;23;20025;-68
2022/04/19 11:10:55;;;;;;;5.25;5.05;;;;;;;18.06;30.87;100830.38;6109404;23;20307;-68
2022/04/19 11:13:22;;;;;;;5.13;4.93;;;;;;;17.99;33.72;100769.94;6111175;23;20423;-68
2022/04/19 11:16:07;;;;;;;5.38;5.18;;;;;;;18.41;31.83;100828.44;6103075;23;20028;-68
2022/04/19 11:18:39;;;;;;;5.80;5.50;;;;;;;18.21;32.02;100822.97;6064586;23;20010;-68
2022/04/19 11:21:51;;;;;;;6.60;6.30;;;;;;;18.06;32.01;100830.38;6093197;23;20071;-69
2022/04/19 11:24:55;;;;;;;7.03;6.72;;;;;;;18.19;31.16;100837.34;6103775;23;20460;-68
2022/04/19 11:27:22;;;;;;;7.15;6.57;;;;;;;18.15;31.93;100834.09;6113083;23;20182;-69
2022/04/19 11:29:50;;;;;;;5.38;5.07;;;;;;;17.96;31.66;100836.53;6109407;23;20626;-69
2022/04/19 11:32:24;;;;;;;6.43;6.13;;;;;;;18.04;31.82;100820.84;6089681;23;20096;-66
2022/04/19 11:35:04;;;;;;;5.65;5.22;;;;;;;18.25;30.25;100829.69;6112283;23;20530;-68
2022/04/19 11:37:32;;;;;;;6.50;6.20;;;;;;;17.78;30.39;100826.44;6094446;23;20050;-68
2022/04/19 11:48:30;;;;;;;7.03;6.63;;;;;;;18.58;32.20;100817.22;6084174;23;20009;-67
2022/04/19 11:51:10;;;;;;;5.30;5.10;;;;;;;18.51;31.21;100800.97;6102980;23;20101;-68
2022/04/19 11:53:36;;;;;;;5.30;5.10;;;;;;;18.44;32.32;100828.16;6111296;23;20026;-68
2022/04/19 11:56:04;;;;;;;5.22;4.93;;;;;;;18.22;32.26;100811.38;6107211;23;20018;-68
2022/04/19 11:58:31;;;;;;;6.50;5.95;;;;;;;18.22;31.47;100818.47;6084540;23;20313;-70
2022/04/19 12:01:06;;;;;;;5.40;5.10;;;;;;;18.38;32.26;100818.91;6107773;23;20104;-68
2022/04/19 12:03:36;;;;;;;6.32;6.03;;;;;;;18.41;33.88;100754.03;6106347;23;20014;-69
2022/04/19 12:06:10;;;;;;;5.50;5.20;;;;;;;18.62;30.25;100810.72;6107598;23;20033;-70
2022/04/19 12:08:40;;;;;;;5.63;5.20;;;;;;;18.63;30.39;100820.34;6103925;23;20335;-70
2022/04/19 12:11:26;;;;;;;5.63;5.32;;;;;;;18.45;31.78;100812.09;6103490;23;20222;-69
2022/04/19 12:13:54;;;;;;;5.65;5.28;;;;;;;18.22;32.29;100808.72;6102735;23;20009;-68
2022/04/19 12:16:34;;;;;;;8.57;7.82;;;;;;;18.44;33.47;100807.78;6103661;23;20104;-67
2022/04/19 12:19:04;;;;;;;4.90;4.70;;;;;;;18.88;31.43;100811.19;6109048;23;20034;-69
2022/04/19 12:21:43;;;;;;;6.05;5.75;;;;;;;19.03;33.21;100806.34;6109668;23;20306;-71